Time;durP1;ratioP1;P1;durP2;ratioP2;P2;SDS_P1;SDS_P2;PMS_P1;PMS_P2;Temp;Humidity;BMP_temperature;BMP_pressure;BME280_temperature;BME280_humidity;BME280_pressure;Samples;Min_cycle;Max_cycle;Signal;HPM_P1;HPM_P2
2023/01/14 00:01:18;;;;;;;35.40;4.57;;;6.50;99.90;;;;;;5032978;28;20092;-71
2023/01/14 00:03:44;;;;;;;32.25;4.40;;;7.00;99.90;;;;;;5031384;28;20053;-70
2023/01/14 00:06:15;;;;;;;26.10;4.07;;;7.00;99.90;;;;;;5032861;28;20095;-68
2023/01/14 00:08:41;;;;;;;34.80;4.30;;;7.00;99.90;;;;;;5032814;28;20375;-69
2023/01/14 00:11:10;;;;;;;;;;;7.00;99.90;;;;;;5033143;28;20187;-69
2023/01/14 00:13:38;;;;;;;31.58;4.15;;;6.90;99.90;;;;;;5032816;28;19921;-69
2023/01/14 00:16:07;;;;;;;30.75;3.75;;;7.20;99.90;;;;;;5014674;28;20053;-70
2023/01/14 00:18:34;;;;;;;32.38;4.15;;;6.80;99.90;;;;;;5032237;28;20053;-70
2023/01/14 00:21:18;;;;;;;28.95;4.53;;;6.80;99.90;;;;;;5031721;28;20053;-70
2023/01/14 00:23:45;;;;;;;33.42;4.65;;;6.70;99.90;;;;;;5031598;28;20041;-70
2023/01/14 00:26:13;;;;;;;27.85;3.35;;;6.70;99.90;;;;;;5032624;28;20052;-69
2023/01/14 00:28:39;;;;;;;27.27;4.70;;;6.80;99.90;;;;;;5032492;28;20100;-71
2023/01/14 00:31:08;;;;;;;33.58;4.18;;;6.80;99.90;;;;;;5032406;28;20038;-70
2023/01/14 00:33:35;;;;;;;20.67;3.47;;;6.80;99.90;;;;;;5032149;28;20061;-70
2023/01/14 00:36:01;;;;;;;23.15;3.70;;;6.80;99.90;;;;;;5032333;28;20140;-71
2023/01/14 00:38:27;;;;;;;30.00;3.70;;;6.70;99.90;;;;;;5032375;28;20188;-69
2023/01/14 00:41:11;;;;;;;24.48;3.92;;;6.60;99.90;;;;;;5037176;28;20041;-71
2023/01/14 00:43:39;;;;;;;24.65;4.22;;;6.90;99.90;;;;;;5052219;28;20041;-70
2023/01/14 00:46:06;;;;;;;39.45;6.25;;;6.40;99.90;;;;;;5051834;28;20561;-70
2023/01/14 00:48:33;;;;;;;33.65;4.53;;;6.70;99.90;;;;;;5051918;28;20067;-70
2023/01/14 00:50:59;;;;;;;27.65;3.90;;;6.60;99.90;;;;;;5051990;28;20041;-70
2023/01/14 00:53:25;;;;;;;28.25;4.22;;;6.50;99.90;;;;;;5052111;28;20400;-71
2023/01/14 00:55:50;;;;;;;23.50;3.55;;;6.90;99.90;;;;;;5051996;28;20481;-69
2023/01/14 00:58:16;;;;;;;22.67;3.45;;;6.60;99.90;;;;;;5051976;28;20131;-70
2023/01/14 01:00:43;;;;;;;25.98;4.03;;;6.60;99.90;;;;;;5052017;28;20053;-71
2023/01/14 01:03:09;;;;;;;28.63;4.13;;;6.60;99.90;;;;;;5050716;28;20045;-70
2023/01/14 01:05:38;;;;;;;30.58;3.92;;;6.40;99.90;;;;;;5052314;28;20060;-71
2023/01/14 01:08:05;;;;;;;31.63;3.90;;;6.50;99.90;;;;;;5050827;28;20079;-69
2023/01/14 01:10:33;;;;;;;21.90;3.40;;;7.30;99.90;;;;;;5051840;28;20056;-69
2023/01/14 01:12:58;;;;;;;34.63;4.03;;;6.60;99.90;;;;;;5051922;28;20132;-70
2023/01/14 01:15:24;;;;;;;27.25;4.13;;;6.70;99.90;;;;;;5051845;28;20540;-70
2023/01/14 01:17:50;;;;;;;28.27;3.95;;;6.50;99.90;;;;;;5051606;28;20060;-71
2023/01/14 01:20:15;;;;;;;30.52;4.15;;;6.50;99.90;;;;;;5051854;28;20123;-71
2023/01/14 01:22:41;;;;;;;29.05;5.50;;;6.30;99.90;;;;;;5050517;28;20047;-70
2023/01/14 01:25:07;;;;;;;34.90;3.97;;;6.60;99.90;;;;;;5051487;28;20072;-70
2023/01/14 01:27:33;;;;;;;27.33;3.33;;;6.50;99.90;;;;;;5053989;28;20118;-70
2023/01/14 01:29:58;;;;;;;31.55;4.80;;;6.60;99.90;;;;;;5055799;28;20478;-69
2023/01/14 01:32:25;;;;;;;33.97;4.72;;;6.60;99.90;;;;;;5037512;28;20049;-70
2023/01/14 01:34:51;;;;;;;28.30;4.28;;;6.70;99.90;;;;;;5055716;28;20731;-70
2023/01/14 01:37:16;;;;;;;30.45;3.75;;;6.40;99.90;;;;;;5055725;28;20136;-71
2023/01/14 01:39:42;;;;;;;25.88;4.50;;;6.80;99.90;;;;;;5055645;28;20052;-71
2023/01/14 01:42:13;;;;;;;35.53;4.90;;;6.60;99.90;;;;;;5055664;28;20087;-71
2023/01/14 01:44:39;;;;;;;36.97;3.78;;;6.80;99.90;;;;;;5055556;28;20454;-71
2023/01/14 01:47:04;;;;;;;27.75;4.30;;;6.90;99.90;;;;;;5055195;28;20131;-72
2023/01/14 01:49:34;;;;;;;35.10;4.85;;;6.80;99.90;;;;;;5055431;28;20124;-71
2023/01/14 01:52:11;;;;;;;35.67;5.22;;;6.90;99.90;;;;;;5055312;28;20117;-72
2023/01/14 01:54:42;;;;;;;23.85;3.63;;;6.90;99.90;;;;;;5055397;28;20045;-71
2023/01/14 01:57:11;;;;;;;26.85;4.78;;;7.00;99.90;;;;;;5055310;28;20056;-71
2023/01/14 01:59:41;;;;;;;34.90;4.30;;;6.90;99.90;;;;;;5054907;28;20170;-71
2023/01/14 02:02:08;;;;;;;30.58;4.25;;;6.80;99.90;;;;;;5055210;28;20091;-71
2023/01/14 02:04:34;;;;;;;42.42;4.25;;;6.60;99.90;;;;;;5053495;28;20140;-72
2023/01/14 02:06:59;;;;;;;37.85;5.18;;;6.80;99.90;;;;;;5055145;28;20041;-70
2023/01/14 02:09:25;;;;;;;32.58;4.65;;;6.80;99.90;;;;;;5054033;28;20477;-72
2023/01/14 02:12:28;;;;;;;37.80;5.75;;;6.90;99.90;;;;;;5055037;28;20092;-71
2023/01/14 02:15:14;;;;;;;28.95;4.32;;;7.10;99.90;;;;;;5047724;28;20468;-72
2023/01/14 02:18:01;;;;;;;30.77;4.43;;;6.80;99.90;;;;;;5054952;28;20041;-70
2023/01/14 02:20:35;;;;;;;;;;;7.00;99.90;;;;;;5055256;28;20049;-71
2023/01/14 02:23:19;;;;;;;29.17;3.35;;;;;;;;;;5054858;28;19924;-71
2023/01/14 02:25:54;;;;;;;32.60;5.38;;;;;;;;;;5054750;28;20554;-71
2023/01/14 02:28:58;;;;;;;33.40;4.75;;;6.80;99.90;;;;;;5054400;28;20406;-72
2023/01/14 02:31:42;;;;;;;33.80;4.45;;;6.70;99.90;;;;;;5054552;28;20048;-71
2023/01/14 02:34:33;;;;;;;32.30;4.53;;;6.90;99.90;;;;;;5053674;28;20045;-71
2023/01/14 02:37:15;;;;;;;37.53;4.90;;;7.00;99.90;;;;;;5054693;28;20086;-71
2023/01/14 02:40:06;;;;;;;26.33;4.20;;;6.70;99.90;;;;;;5054568;28;20057;-72
2023/01/14 02:45:44;;;;;;;35.25;4.50;;;6.70;99.90;;;;;;5054413;28;20492;-71
2023/01/14 02:48:12;;;;;;;30.95;4.00;;;6.50;99.90;;;;;;5054526;28;20053;-71
2023/01/14 02:50:37;;;;;;;26.52;5.60;;;6.50;99.90;;;;;;5054273;28;20137;-72
2023/01/14 02:53:11;;;;;;;24.20;4.15;;;6.60;99.90;;;;;;5052976;28;20148;-71
2023/01/14 02:55:38;;;;;;;25.27;4.13;;;6.60;99.90;;;;;;5054311;28;20041;-71
2023/01/14 02:58:19;;;;;;;33.33;4.80;;;6.50;99.90;;;;;;5052816;28;20508;-71
2023/01/14 03:00:57;;;;;;;30.77;5.40;;;6.90;99.90;;;;;;5053288;28;20053;-72
2023/01/14 03:03:42;;;;;;;31.17;4.38;;;6.80;99.90;;;;;;5054091;28;20052;-72
2023/01/14 03:06:40;;;;;;;28.42;3.90;;;7.00;99.90;;;;;;5053035;28;20137;-71
2023/01/14 03:09:41;;;;;;;28.63;4.28;;;6.70;99.90;;;;;;5054047;28;20048;-71
2023/01/14 03:12:29;;;;;;;31.88;4.63;;;6.40;99.90;;;;;;5055807;28;20386;-73
2023/01/14 03:15:24;;;;;;;29.98;4.00;;;6.70;99.90;;;;;;5053853;28;20080;-72
2023/01/14 03:18:16;;;;;;;31.42;5.03;;;6.80;99.90;;;;;;5036256;28;20045;-71
2023/01/14 03:20:44;;;;;;;32.55;5.50;;;;;;;;;;5051605;28;20061;-74
2023/01/14 03:23:15;;;;;;;30.30;4.75;;;6.40;99.90;;;;;;5053760;28;20045;-71
2023/01/14 03:25:44;;;;;;;32.05;4.70;;;6.60;99.90;;;;;;5053679;28;20044;-72
2023/01/14 03:28:16;;;;;;;22.00;3.70;;;6.50;99.90;;;;;;5053283;28;20135;-73
2023/01/14 03:30:48;;;;;;;29.63;4.20;;;6.60;99.90;;;;;;5053547;28;20796;-72
2023/01/14 03:33:22;;;;;;;26.98;3.58;;;;;;;;;;5053591;28;20170;-72
2023/01/14 03:35:50;;;;;;;34.58;3.72;;;6.20;99.90;;;;;;5052951;28;20053;-73
2023/01/14 03:38:22;;;;;;;33.92;4.28;;;6.10;99.90;;;;;;5053393;28;20053;-72
2023/01/14 03:40:50;;;;;;;30.90;4.45;;;6.20;99.90;;;;;;5053409;28;20067;-74
2023/01/14 03:43:38;;;;;;;43.55;5.53;;;6.20;99.90;;;;;;5053038;28;20064;-75
2023/01/14 03:46:05;;;;;;;32.58;4.50;;;6.10;99.90;;;;;;5053256;28;20044;-73
2023/01/14 03:48:31;;;;;;;33.70;4.18;;;5.80;99.90;;;;;;5053215;28;20085;-73
2023/01/14 03:51:18;;;;;;;30.88;3.63;;;6.10;99.90;;;;;;5052484;28;20045;-73
2023/01/14 03:53:47;;;;;;;26.13;4.22;;;;;;;;;;5052099;28;20460;-72
2023/01/14 03:56:12;;;;;;;24.65;3.60;;;6.00;99.90;;;;;;5052751;28;20120;-72
2023/01/14 03:58:46;;;;;;;35.03;4.57;;;6.00;99.90;;;;;;5053005;28;20123;-73
2023/01/14 04:01:20;;;;;;;28.88;3.80;;;6.00;99.90;;;;;;5051626;28;20104;-73
2023/01/14 04:03:47;;;;;;;29.00;5.03;;;5.90;99.90;;;;;;5052907;28;20094;-73
2023/01/14 04:06:13;;;;;;;36.28;4.35;;;;;;;;;;5052848;28;20074;-73
2023/01/14 04:08:39;;;;;;;;;;;6.00;99.90;;;;;;5051927;28;20045;-73
2023/01/14 04:11:05;;;;;;;26.95;4.10;;;5.70;99.90;;;;;;5052431;28;19924;-74
2023/01/14 04:16:15;;;;;;;30.23;4.00;;;5.60;99.90;;;;;;5052665;28;20060;-73
2023/01/14 04:18:41;;;;;;;25.27;3.70;;;6.10;99.90;;;;;;5052672;28;20058;-73
2023/01/14 04:21:07;;;;;;;26.70;4.18;;;;;;;;;;5052595;28;20060;-74
2023/01/14 04:23:33;;;;;;;32.28;4.00;;;5.50;99.90;;;;;;5052577;28;20142;-75
2023/01/14 04:25:59;;;;;;;45.25;3.95;;;;;;;;;;5052260;28;20099;-73
2023/01/14 04:28:25;;;;;;;;;;;5.40;99.90;;;;;;5052488;28;20045;-73
2023/01/14 04:30:51;;;;;;;28.17;3.72;;;5.50;99.90;;;;;;5052327;28;19947;-73
2023/01/14 04:33:17;;;;;;;31.42;4.13;;;5.50;99.90;;;;;;5052376;28;20052;-74
2023/01/14 04:35:48;;;;;;;27.20;3.70;;;5.50;99.90;;;;;;5051097;28;20094;-73
2023/01/14 04:38:15;;;;;;;25.05;4.15;;;5.60;99.90;;;;;;5052339;28;20053;-73
2023/01/14 04:40:40;;;;;;;24.30;3.35;;;5.40;99.90;;;;;;5051997;28;20503;-73
2023/01/14 04:43:06;;;;;;;30.50;4.30;;;5.40;99.90;;;;;;5034572;28;20048;-73
2023/01/14 04:45:32;;;;;;;30.45;3.83;;;;;;;;;;5051955;28;20052;-73
2023/01/14 04:47:58;;;;;;;27.10;3.47;;;;;;;;;;5052171;28;20041;-73
2023/01/14 04:50:30;;;;;;;25.67;4.30;;;;;;;;;;5051177;28;20052;-73
2023/01/14 04:53:06;;;;;;;32.75;3.83;;;5.40;99.90;;;;;;5052161;28;20045;-73
2023/01/14 04:55:34;;;;;;;24.50;3.15;;;;;;;;;;5051231;28;20052;-73
2023/01/14 04:57:59;;;;;;;29.73;3.72;;;5.50;99.90;;;;;;5051141;28;20056;-74
2023/01/14 05:00:25;;;;;;;23.48;3.85;;;5.70;99.90;;;;;;5050830;28;20052;-73
2023/01/14 05:02:51;;;;;;;24.58;3.30;;;5.50;99.90;;;;;;5051193;28;20041;-73
2023/01/14 05:05:17;;;;;;;31.13;4.10;;;;;;;;;;5051964;28;20081;-73
2023/01/14 05:07:42;;;;;;;33.00;3.47;;;5.60;99.90;;;;;;5051889;28;20045;-73
2023/01/14 05:10:09;;;;;;;30.38;4.25;;;;;;;;;;5051666;28;20159;-73
2023/01/14 05:12:35;;;;;;;32.38;4.28;;;5.70;99.90;;;;;;5050567;28;20049;-74
2023/01/14 05:15:00;;;;;;;34.50;4.13;;;5.50;99.90;;;;;;5051882;28;20056;-74
2023/01/14 05:17:26;;;;;;;22.02;4.00;;;5.70;99.90;;;;;;5050766;28;20045;-73
2023/01/14 05:19:52;;;;;;;31.75;4.70;;;5.30;99.90;;;;;;5050698;28;20234;-73
2023/01/14 05:22:17;;;;;;;25.15;3.50;;;5.40;99.90;;;;;;5051980;28;20393;-74
2023/01/14 05:24:43;;;;;;;30.63;3.47;;;5.50;99.90;;;;;;5050815;28;20057;-73
2023/01/14 05:27:09;;;;;;;26.50;3.40;;;;;;;;;;5052052;28;20060;-75
2023/01/14 05:29:38;;;;;;;35.03;4.22;;;;;;;;;;5051701;28;20051;-74
2023/01/14 05:32:04;;;;;;;30.20;4.25;;;5.40;99.90;;;;;;5050318;28;20048;-74
2023/01/14 05:34:30;;;;;;;25.38;3.42;;;5.80;99.90;;;;;;5050599;28;20478;-73
2023/01/14 05:36:56;;;;;;;;;;;5.20;99.90;;;;;;5051655;28;20144;-73
2023/01/14 05:39:22;;;;;;;23.92;3.65;;;5.50;99.90;;;;;;5051312;28;20347;-73
2023/01/14 05:47:27;;;;;;;33.65;4.20;;;5.40;99.90;;;;;;5050443;28;20389;-73
2023/01/14 05:49:53;;;;;;;38.00;5.35;;;;;;;;;;5051534;28;20053;-74
2023/01/14 05:52:19;;;;;;;18.60;3.67;;;5.40;99.90;;;;;;5049934;28;20603;-74
2023/01/14 05:54:45;;;;;;;29.65;3.42;;;;;;;;;;5051696;28;20131;-75
2023/01/14 05:57:13;;;;;;;30.02;3.75;;;5.80;99.90;;;;;;5050401;28;20063;-75
2023/01/14 05:59:39;;;;;;;35.85;4.07;;;5.30;99.90;;;;;;5050003;28;20129;-75
2023/01/14 06:07:33;;;;;;;32.30;4.40;;;5.30;99.90;;;;;;5050078;28;20052;-74
2023/01/14 06:09:58;;;;;;;33.78;5.20;;;5.60;99.90;;;;;;5051080;28;20401;-76
2023/01/14 06:12:57;;;;;;;27.70;3.55;;;5.60;99.90;;;;;;5050314;28;20041;-74
2023/01/14 06:15:21;;;;;;;26.92;3.80;;;5.50;99.90;;;;;;5053419;28;20064;-75
2023/01/14 06:17:58;;;;;;;21.50;3.42;;;5.90;99.90;;;;;;5054979;28;20170;-76
2023/01/14 06:20:24;;;;;;;;;;;5.60;99.90;;;;;;5054264;28;20051;-75
2023/01/14 06:22:50;;;;;;;35.50;4.90;;;;;;;;;;5053540;28;19921;-75
2023/01/14 06:25:16;;;;;;;37.22;5.97;;;5.60;99.90;;;;;;5054780;28;20127;-75
2023/01/14 06:27:42;;;;;;;24.73;5.20;;;;;;;;;;5054844;28;20166;-75
2023/01/14 06:30:08;;;;;;;31.25;4.97;;;5.70;99.90;;;;;;5054619;28;20052;-76
2023/01/14 06:32:34;;;;;;;;;;;5.70;99.90;;;;;;5054915;28;20098;-75
2023/01/14 06:34:59;;;;;;;36.28;4.80;;;5.60;99.90;;;;;;5054328;28;19924;-78
2023/01/14 06:37:25;;;;;;;27.98;5.18;;;5.40;99.90;;;;;;5053126;28;20544;-74
2023/01/14 06:39:51;;;;;;;26.25;4.32;;;;;;;;;;5054595;28;20045;-75
2023/01/14 06:42:17;;;;;;;37.13;5.05;;;5.60;99.90;;;;;;5053513;28;20132;-74
2023/01/14 06:44:42;;;;;;;31.65;5.97;;;5.70;99.90;;;;;;5054565;28;20135;-75
2023/01/14 06:47:08;;;;;;;39.28;5.72;;;5.60;99.90;;;;;;5054626;28;20045;-75
2023/01/14 06:49:34;;;;;;;33.40;5.63;;;5.70;99.90;;;;;;5054275;28;20110;-75
2023/01/14 06:52:00;;;;;;;38.55;5.53;;;5.60;99.90;;;;;;5053037;28;20043;-75
2023/01/14 06:54:25;;;;;;;36.92;6.03;;;5.70;99.90;;;;;;5054242;28;20045;-75
2023/01/14 06:56:51;;;;;;;36.95;5.35;;;5.60;99.90;;;;;;5054099;28;20048;-75
2023/01/14 06:59:17;;;;;;;31.67;5.43;;;;;;;;;;5036540;28;20090;-75
2023/01/14 07:01:43;;;;;;;36.88;6.00;;;5.60;99.90;;;;;;5053737;28;20052;-75
2023/01/14 07:04:09;;;;;;;30.20;6.40;;;;;;;;;;5053987;28;20049;-75
2023/01/14 07:06:34;;;;;;;38.90;6.28;;;5.80;99.90;;;;;;5053983;28;20056;-76
2023/01/14 07:09:00;;;;;;;41.33;6.90;;;5.60;99.90;;;;;;5053917;28;20053;-75
2023/01/14 07:11:26;;;;;;;40.88;6.07;;;5.90;99.90;;;;;;5052594;28;20094;-75
2023/01/14 07:13:51;;;;;;;37.53;6.45;;;5.80;99.90;;;;;;5052792;28;20194;-75
2023/01/14 07:16:17;;;;;;;24.35;5.00;;;5.80;99.90;;;;;;5052342;28;20515;-76
2023/01/14 07:18:43;;;;;;;28.90;5.47;;;5.60;99.90;;;;;;5052336;28;20074;-75
2023/01/14 07:21:09;;;;;;;35.05;6.85;;;5.80;99.90;;;;;;5052450;28;20049;-75
2023/01/14 07:23:34;;;;;;;36.33;6.32;;;5.70;99.90;;;;;;5052421;28;20045;-75
2023/01/14 07:26:00;;;;;;;37.83;7.07;;;5.80;99.90;;;;;;5052677;28;20041;-75
2023/01/14 07:28:27;;;;;;;42.15;7.43;;;6.10;99.90;;;;;;5053051;28;20408;-75
2023/01/14 07:30:53;;;;;;;37.30;6.82;;;5.90;99.90;;;;;;5051920;28;20146;-75
2023/01/14 07:33:21;;;;;;;34.28;6.88;;;5.80;99.90;;;;;;5052950;28;20080;-77
2023/01/14 07:35:51;;;;;;;33.63;6.13;;;;;;;;;;5052847;28;20482;-76
2023/01/14 07:38:17;;;;;;;38.97;6.43;;;5.60;99.90;;;;;;5052263;28;20083;-77
2023/01/14 07:40:43;;;;;;;33.30;7.38;;;6.20;99.90;;;;;;5052245;28;20049;-75
2023/01/14 07:43:09;;;;;;;40.90;8.38;;;5.80;99.90;;;;;;5053430;28;20063;-77
2023/01/14 07:45:34;;;;;;;48.28;8.80;;;5.90;99.90;;;;;;5052053;28;20045;-76
2023/01/14 07:48:00;;;;;;;42.83;8.43;;;;;;;;;;5051759;28;20047;-76
2023/01/14 07:50:26;;;;;;;41.92;7.78;;;;;;;;;;5052733;28;20393;-76
2023/01/14 07:52:53;;;;;;;40.78;8.27;;;;;;;;;;5044820;28;20094;-76
2023/01/14 07:55:19;;;;;;;42.25;7.93;;;6.00;99.90;;;;;;5050070;28;20056;-75
2023/01/14 07:57:45;;;;;;;43.92;8.77;;;6.30;99.90;;;;;;5051059;28;20053;-76
2023/01/14 08:00:11;;;;;;;44.03;9.90;;;5.90;99.90;;;;;;5050819;28;20474;-75
2023/01/14 08:02:37;;;;;;;;;;;6.00;99.90;;;;;;5052117;28;20057;-75
2023/01/14 08:05:03;;;;;;;51.45;9.55;;;6.00;99.90;;;;;;5051175;28;19925;-75
2023/01/14 08:07:29;;;;;;;;;;;6.00;99.90;;;;;;5051154;28;20482;-76
2023/01/14 08:09:55;;;;;;;40.35;9.10;;;;;;;;;;5034136;28;19974;-76
2023/01/14 08:12:20;;;;;;;43.95;8.63;;;6.00;99.90;;;;;;5050616;28;20041;-74
2023/01/14 08:14:46;;;;;;;48.60;9.35;;;6.20;99.90;;;;;;5051709;28;20127;-74
2023/01/14 08:17:12;;;;;;;45.70;8.55;;;;;;;;;;5051731;28;20059;-71
2023/01/14 08:19:38;;;;;;;51.50;8.45;;;6.00;99.90;;;;;;5052164;28;20091;-73
2023/01/14 08:22:04;;;;;;;45.47;7.35;;;;;;;;;;5050408;28;20422;-73
2023/01/14 08:24:30;;;;;;;43.28;8.52;;;;;;;;;;5050958;28;20104;-74
2023/01/14 08:26:55;;;;;;;62.63;9.88;;;6.00;99.90;;;;;;5050685;28;20451;-73
2023/01/14 08:29:21;;;;;;;38.03;7.05;;;6.00;99.90;;;;;;5050345;28;20041;-73
2023/01/14 08:31:54;;;;;;;36.70;7.00;;;5.70;99.90;;;;;;5051459;28;20485;-72
2023/01/14 08:34:21;;;;;;;43.13;8.00;;;;;;;;;;5051821;28;20156;-74
2023/01/14 08:36:48;;;;;;;47.83;8.45;;;6.00;99.90;;;;;;5050707;28;20098;-74
2023/01/14 08:39:14;;;;;;;37.33;7.93;;;;;;;;;;5051616;28;20581;-73
2023/01/14 08:41:40;;;;;;;;;;;6.00;99.90;;;;;;5052291;28;20493;-74
2023/01/14 08:44:06;;;;;;;40.33;7.75;;;6.30;99.90;;;;;;5051327;28;19927;-73
2023/01/14 08:46:32;;;;;;;41.08;7.75;;;5.80;99.90;;;;;;5051469;28;20052;-71
2023/01/14 08:48:58;;;;;;;37.22;6.47;;;6.00;99.90;;;;;;5050586;28;20553;-71
2023/01/14 08:51:26;;;;;;;;;;;6.30;99.90;;;;;;5051410;28;20057;-71
2023/01/14 08:53:55;;;;;;;43.95;7.40;;;5.90;99.90;;;;;;5051579;28;19921;-71
2023/01/14 08:56:21;;;;;;;44.03;6.80;;;6.00;99.90;;;;;;5051492;28;20045;-73
2023/01/14 08:58:47;;;;;;;41.78;7.28;;;6.40;99.90;;;;;;5039761;28;20123;-77
2023/01/14 09:01:13;;;;;;;45.13;8.15;;;5.90;99.90;;;;;;5050757;28;20132;-72
2023/01/14 09:03:40;;;;;;;44.50;7.20;;;6.20;99.90;;;;;;5048207;28;20481;-73
2023/01/14 09:06:09;;;;;;;40.67;7.60;;;6.00;99.90;;;;;;5064386;28;20052;-72
2023/01/14 09:17:10;;;;;;;45.58;6.35;;;5.90;99.90;;;;;;5069207;28;20436;-73
2023/01/14 09:19:58;;;;;;;36.20;6.18;;;6.20;99.90;;;;;;5068686;28;20052;-74
2023/01/14 09:22:29;;;;;;;33.95;5.40;;;6.10;99.90;;;;;;5071091;28;20518;-71
2023/01/14 09:24:56;;;;;;;28.08;5.78;;;6.00;99.90;;;;;;5070088;28;20060;-72
2023/01/14 09:27:23;;;;;;;38.67;6.63;;;6.10;99.90;;;;;;5070136;28;20056;-71
2023/01/14 09:29:49;;;;;;;;;;;6.40;99.90;;;;;;5071243;28;20062;-71
2023/01/14 09:32:16;;;;;;;34.40;5.85;;;6.20;99.90;;;;;;5071294;28;20019;-72
2023/01/14 09:34:48;;;;;;;28.40;5.72;;;6.00;99.90;;;;;;5069696;28;20140;-72
2023/01/14 09:37:21;;;;;;;28.15;5.35;;;6.10;99.90;;;;;;5036149;28;20389;-69
2023/01/14 09:39:48;;;;;;;36.97;6.03;;;6.40;99.90;;;;;;5031591;28;20053;-69
2023/01/14 09:42:29;;;;;;;36.92;5.60;;;6.10;99.90;;;;;;5031539;28;20049;-69
2023/01/14 09:45:01;;;;;;;32.17;5.88;;;;;;;;;;5031305;28;20124;-68
2023/01/14 09:47:28;;;;;;;40.20;5.40;;;6.00;99.90;;;;;;5031826;28;20049;-69
2023/01/14 09:49:53;;;;;;;36.00;5.82;;;6.40;99.90;;;;;;5035392;28;20049;-68
2023/01/14 09:52:22;;;;;;;36.15;5.57;;;6.10;99.90;;;;;;5035281;28;20052;-68
2023/01/14 09:54:57;;;;;;;32.20;5.10;;;6.20;99.90;;;;;;5035282;28;20111;-69
2023/01/14 09:57:39;;;;;;;26.73;5.05;;;6.40;99.90;;;;;;5035348;28;20092;-69
2023/01/14 10:00:37;;;;;;;27.20;4.85;;;6.30;99.90;;;;;;5034991;28;20045;-68
2023/01/14 10:03:15;;;;;;;20.92;4.57;;;6.30;99.90;;;;;;5035249;28;20045;-68
2023/01/14 10:05:45;;;;;;;27.60;5.13;;;6.30;99.90;;;;;;5035199;28;20057;-69
2023/01/14 10:08:15;;;;;;;23.83;5.15;;;6.10;99.90;;;;;;5035125;28;20045;-69
2023/01/14 10:10:45;;;;;;;25.25;4.72;;;;;;;;;;5035159;28;20132;-69
2023/01/14 10:13:20;;;;;;;17.30;4.03;;;5.90;99.90;;;;;;5034751;28;20045;-68
2023/01/14 10:15:51;;;;;;;26.55;4.65;;;6.30;99.90;;;;;;5035072;28;20132;-68
2023/01/14 10:18:30;;;;;;;22.15;4.82;;;6.10;99.90;;;;;;5035018;28;20049;-69
2023/01/14 10:21:02;;;;;;;20.40;3.63;;;6.40;99.90;;;;;;5034986;28;20053;-69
2023/01/14 10:23:37;;;;;;;13.80;3.50;;;;;;;;;;5034806;28;20056;-68
2023/01/14 10:26:13;;;;;;;10.23;3.25;;;6.30;99.90;;;;;;5034850;28;20045;-67
2023/01/14 10:28:41;;;;;;;17.30;4.10;;;6.60;99.90;;;;;;5034550;28;20054;-68
2023/01/14 10:31:15;;;;;;;11.35;3.30;;;6.50;99.90;;;;;;5034682;28;20037;-69
2023/01/14 10:33:40;;;;;;;16.98;3.70;;;6.60;99.90;;;;;;5034871;28;20053;-68
2023/01/14 10:36:12;;;;;;;10.32;3.88;;;;;;;;;;5034739;28;20064;-69
2023/01/14 10:38:42;;;;;;;14.70;3.67;;;7.00;99.90;;;;;;5034632;28;20145;-69
2023/01/14 10:41:08;;;;;;;11.30;3.28;;;;;;;;;;5034530;28;20477;-69
2023/01/14 10:43:42;;;;;;;13.38;3.50;;;6.80;99.90;;;;;;5034052;28;20383;-69
2023/01/14 10:46:17;;;;;;;12.88;3.25;;;6.70;99.90;;;;;;5037928;28;20049;-69
2023/01/14 10:48:57;;;;;;;14.07;3.00;;;6.80;99.90;;;;;;5053659;28;20114;-69
2023/01/14 10:51:38;;;;;;;7.88;2.80;;;7.00;99.90;;;;;;5053722;28;20241;-70
2023/01/14 10:54:21;;;;;;;10.15;3.17;;;7.00;99.90;;;;;;5053127;28;20044;-69
2023/01/14 10:56:59;;;;;;;9.43;3.10;;;6.90;99.90;;;;;;5053368;28;20049;-68
2023/01/14 10:59:43;;;;;;;9.40;2.75;;;7.10;99.90;;;;;;5053599;28;20045;-70
2023/01/14 11:02:35;;;;;;;7.78;3.03;;;7.00;99.90;;;;;;5053209;28;20041;-69
2023/01/14 11:05:05;;;;;;;7.80;2.53;;;7.10;99.90;;;;;;5053447;28;20045;-70
2023/01/14 11:07:33;;;;;;;11.63;2.83;;;;;;;;;;5052630;28;20604;-69
2023/01/14 11:10:02;;;;;;;6.70;2.70;;;6.80;99.90;;;;;;5053554;28;20048;-70
2023/01/14 11:12:31;;;;;;;10.98;2.95;;;7.10;99.90;;;;;;5053053;28;20098;-69
2023/01/14 11:14:57;;;;;;;7.97;3.10;;;7.00;99.90;;;;;;5052934;28;20049;-68
2023/01/14 11:17:29;;;;;;;13.68;2.78;;;6.80;99.90;;;;;;5053304;28;20136;-69
2023/01/14 11:20:34;;;;;;;11.10;3.20;;;6.80;99.90;;;;;;5051482;28;20037;-68
2023/01/14 11:23:01;;;;;;;8.07;3.00;;;;;;;;;;5008615;28;20051;-72
2023/01/14 11:25:28;;;;;;;10.07;3.25;;;7.20;99.90;;;;;;4997015;28;20524;-74
2023/01/14 11:27:56;;;;;;;7.57;3.40;;;7.30;99.90;;;;;;5011423;28;20072;-76
2023/01/14 11:30:24;;;;;;;7.53;2.92;;;7.00;99.90;;;;;;5046295;28;20052;-73
2023/01/14 11:32:51;;;;;;;6.10;2.58;;;7.20;99.90;;;;;;5050619;28;20037;-73
2023/01/14 11:35:22;;;;;;;5.45;2.88;;;7.10;99.90;;;;;;5052782;28;20052;-72
2023/01/14 11:37:49;;;;;;;6.28;2.95;;;7.00;99.90;;;;;;5052968;28;20061;-71
2023/01/14 11:41:28;;;;;;;11.65;3.08;;;7.30;99.90;;;;;;5052980;28;20409;-71
2023/01/14 11:43:14;;;;;;;11.52;3.17;;;7.20;99.90;;;;;;5052518;28;20060;-70
2023/01/14 11:45:40;;;;;;;4.25;2.40;;;7.10;99.90;;;;;;5052602;28;20485;-72
2023/01/14 11:48:29;;;;;;;9.50;2.90;;;6.90;99.90;;;;;;5052624;28;20582;-70
2023/01/14 11:51:03;;;;;;;8.32;3.03;;;7.00;99.90;;;;;;5049706;28;20417;-71
2023/01/14 11:53:51;;;;;;;10.20;3.00;;;7.20;99.90;;;;;;5044617;28;20038;-74
2023/01/14 11:56:19;;;;;;;7.95;2.92;;;7.20;99.90;;;;;;5049520;28;20528;-72
2023/01/14 11:58:45;;;;;;;7.97;3.15;;;6.90;99.90;;;;;;5051602;28;20057;-69
2023/01/14 12:01:37;;;;;;;5.82;2.67;;;7.20;99.90;;;;;;5052885;28;20141;-69
2023/01/14 12:04:25;;;;;;;7.85;2.90;;;7.00;99.90;;;;;;5052794;28;20128;-69
2023/01/14 12:06:57;;;;;;;10.25;3.47;;;6.90;99.90;;;;;;5052755;28;20045;-69
2023/01/14 12:09:32;;;;;;;8.40;3.00;;;7.00;99.90;;;;;;5052378;28;20048;-69
2023/01/14 12:12:06;;;;;;;6.97;2.85;;;7.00;99.90;;;;;;5052128;28;20048;-69
2023/01/14 12:17:35;;;;;;;4.53;2.72;;;6.90;99.90;;;;;;5052618;28;20463;-69
2023/01/14 12:20:07;;;;;;;6.38;2.80;;;7.30;99.90;;;;;;5052394;28;20056;-70
2023/01/14 12:22:54;;;;;;;6.22;2.80;;;7.40;99.90;;;;;;5052438;28;20493;-69
2023/01/14 12:25:29;;;;;;;9.65;3.22;;;7.10;99.90;;;;;;5052297;28;20452;-69
2023/01/14 12:28:09;;;;;;;6.80;3.78;;;7.00;99.90;;;;;;5052556;28;20044;-69
2023/01/14 12:30:50;;;;;;;6.50;3.20;;;7.20;99.90;;;;;;5052622;28;20048;-69
2023/01/14 12:33:30;;;;;;;9.23;3.47;;;7.50;99.90;;;;;;5052257;28;20052;-69
2023/01/14 12:36:08;;;;;;;7.25;3.17;;;7.60;99.90;;;;;;5050718;28;20037;-69
2023/01/14 12:47:15;;;;;;;5.07;2.90;;;;;;;;;;5041681;28;20052;-68
2023/01/14 12:49:43;;;;;;;7.20;3.33;;;7.60;99.90;;;;;;5040100;28;20402;-69
2023/01/14 12:52:12;;;;;;;6.88;3.25;;;7.30;99.90;;;;;;5031144;28;20410;-69
2023/01/14 12:54:40;;;;;;;9.88;2.97;;;7.60;99.90;;;;;;5030822;28;20076;-69
2023/01/14 12:57:07;;;;;;;12.00;3.45;;;7.50;99.90;;;;;;5030266;28;20547;-70
2023/01/14 12:59:38;;;;;;;6.05;3.10;;;7.40;99.90;;;;;;5031022;28;20662;-69
2023/01/14 13:02:30;;;;;;;8.27;3.33;;;7.70;99.90;;;;;;5031848;28;20048;-70
2023/01/14 13:05:04;;;;;;;8.20;2.85;;;8.10;99.90;;;;;;5031889;28;20056;-69
2023/01/14 13:07:35;;;;;;;6.10;2.92;;;8.00;99.90;;;;;;5031474;28;20049;-70
2023/01/14 13:10:05;;;;;;;5.53;2.72;;;7.90;99.90;;;;;;5031717;28;20045;-69
2023/01/14 13:12:36;;;;;;;4.65;2.70;;;;;;;;;;5031725;28;20132;-69
2023/01/14 13:15:07;;;;;;;7.53;2.70;;;8.00;99.90;;;;;;5031745;28;20152;-69
2023/01/14 13:17:35;;;;;;;6.60;3.00;;;7.90;99.90;;;;;;5031519;28;20141;-69
2023/01/14 13:20:25;;;;;;;6.18;2.83;;;8.00;99.90;;;;;;5031679;28;20128;-70
2023/01/14 13:22:53;;;;;;;4.45;2.53;;;7.90;99.90;;;;;;5028296;28;20402;-69
2023/01/14 13:25:35;;;;;;;5.57;2.90;;;7.90;99.90;;;;;;5035673;28;20108;-70
2023/01/14 13:28:10;;;;;;;5.03;2.10;;;8.20;99.90;;;;;;5035819;28;20061;-69
2023/01/14 13:30:49;;;;;;;4.82;2.22;;;8.40;99.90;;;;;;5035675;28;20549;-70
2023/01/14 13:33:27;;;;;;;4.72;2.00;;;8.40;99.90;;;;;;5035608;28;20041;-69
2023/01/14 13:36:18;;;;;;;4.50;2.95;;;7.90;99.90;;;;;;5035456;28;20041;-68
2023/01/14 13:39:06;;;;;;;8.52;4.80;;;8.30;99.90;;;;;;5035275;28;20723;-69
2023/01/14 13:41:43;;;;;;;3.20;2.10;;;8.30;99.90;;;;;;5035559;28;20049;-69
2023/01/14 13:44:39;;;;;;;4.05;2.08;;;8.40;99.90;;;;;;5035264;28;20049;-69
2023/01/14 13:47:18;;;;;;;3.58;1.98;;;8.20;99.90;;;;;;5034418;28;20061;-68
2023/01/14 13:50:00;;;;;;;4.78;2.08;;;8.90;99.90;;;;;;5035443;28;20053;-68
2023/01/14 13:52:29;;;;;;;3.80;2.22;;;8.70;99.90;;;;;;5035154;28;20052;-68
2023/01/14 13:55:12;;;;;;;3.85;2.60;;;9.20;99.90;;;;;;5035105;28;20391;-68
2023/01/14 13:57:42;;;;;;;3.70;2.00;;;8.90;99.90;;;;;;5035297;28;20050;-69
2023/01/14 14:00:37;;;;;;;4.85;2.45;;;9.00;99.90;;;;;;5035251;28;20060;-69
2023/01/14 14:03:15;;;;;;;2.33;2.00;;;9.10;99.90;;;;;;5034207;28;20057;-70